Time;durP1;ratioP1;P1;durP2;ratioP2;P2;SDS_P1;SDS_P2;PMS_P1;PMS_P2;Temp;Humidity;BMP_temperature;BMP_pressure;BME280_temperature;BME280_humidity;BME280_pressure;Samples;Min_cycle;Max_cycle;Signal;HPM_P1;HPM_P2
2022/10/29 00:01:40;;;;;;;13.23;7.40;;;13.30;99.90;;;;;;5024558;28;20401;-58
2022/10/29 00:04:05;;;;;;;7.65;6.88;;;13.30;99.90;;;;;;5027833;28;20034;-60
2022/10/29 00:06:31;;;;;;;14.18;7.25;;;13.20;99.90;;;;;;5027097;28;20068;-58
2022/10/29 00:08:56;;;;;;;8.52;6.93;;;13.10;99.90;;;;;;5027503;28;20026;-58
2022/10/29 00:11:22;;;;;;;11.10;6.90;;;13.10;99.90;;;;;;5024923;28;20041;-58
2022/10/29 00:13:53;;;;;;;11.05;6.63;;;13.20;99.90;;;;;;5030342;28;20058;-59
2022/10/29 00:16:21;;;;;;;8.30;7.30;;;13.10;99.90;;;;;;5024145;28;20029;-58
2022/10/29 00:18:46;;;;;;;9.48;7.40;;;13.10;99.90;;;;;;5024357;28;20029;-58
2022/10/29 00:21:18;;;;;;;8.30;7.45;;;13.10;99.90;;;;;;5025812;28;20041;-60
2022/10/29 00:23:43;;;;;;;;;;;13.10;99.90;;;;;;5027830;28;20133;-60
2022/10/29 00:26:09;;;;;;;9.25;7.15;;;13.10;99.90;;;;;;5026984;28;20323;-59
2022/10/29 00:28:35;;;;;;;8.20;7.15;;;13.00;99.90;;;;;;5026354;28;20099;-59
2022/10/29 00:31:03;;;;;;;7.97;7.28;;;13.00;99.90;;;;;;5025875;28;20057;-60
2022/10/29 00:33:28;;;;;;;10.95;7.00;;;13.00;99.90;;;;;;5025955;28;20022;-60
2022/10/29 00:36:05;;;;;;;14.68;7.13;;;13.00;99.90;;;;;;5024596;28;20032;-59
2022/10/29 00:38:32;;;;;;;11.05;6.35;;;12.90;99.90;;;;;;5027169;28;20025;-59
2022/10/29 00:40:59;;;;;;;15.95;7.78;;;12.90;99.90;;;;;;5026060;28;20037;-58
2022/10/29 00:43:25;;;;;;;8.63;7.22;;;12.90;99.90;;;;;;5026804;28;20033;-59
2022/10/29 00:46:08;;;;;;;8.88;6.68;;;12.80;99.90;;;;;;5025943;28;20026;-59
2022/10/29 00:48:39;;;;;;;10.65;6.97;;;12.80;99.90;;;;;;5025707;28;20038;-59
2022/10/29 00:51:08;;;;;;;14.68;7.13;;;12.70;99.90;;;;;;5025565;28;20073;-59
2022/10/29 00:53:37;;;;;;;9.00;7.13;;;12.70;99.90;;;;;;5027283;28;20114;-59
2022/10/29 00:56:03;;;;;;;12.95;6.97;;;12.70;99.90;;;;;;5029503;28;20033;-59
2022/10/29 00:58:29;;;;;;;9.23;7.47;;;12.70;99.90;;;;;;5030159;28;20119;-59
2022/10/29 01:00:55;;;;;;;11.52;6.95;;;12.60;99.90;;;;;;5027644;28;20561;-59
2022/10/29 01:03:21;;;;;;;10.52;7.40;;;12.60;99.90;;;;;;5030666;28;20032;-59
2022/10/29 01:05:48;;;;;;;7.95;7.10;;;12.60;99.90;;;;;;5031634;28;20025;-59
2022/10/29 01:08:14;;;;;;;13.77;7.38;;;12.50;99.90;;;;;;5036777;28;20026;-59
2022/10/29 01:10:46;;;;;;;12.57;7.03;;;12.50;99.90;;;;;;5030732;28;20034;-59
2022/10/29 01:13:40;;;;;;;12.63;7.45;;;12.50;99.90;;;;;;5029763;28;20025;-59
2022/10/29 01:16:28;;;;;;;29.15;7.10;;;12.40;99.90;;;;;;5030384;28;20057;-58
2022/10/29 01:19:19;;;;;;;8.45;7.40;;;12.40;99.90;;;;;;5029512;28;20030;-60
2022/10/29 01:22:02;;;;;;;8.93;7.67;;;12.40;99.90;;;;;;5029727;28;20125;-59
2022/10/29 01:24:48;;;;;;;8.77;7.40;;;12.30;99.90;;;;;;5028625;28;20268;-59
2022/10/29 01:27:32;;;;;;;9.75;8.75;;;12.30;99.90;;;;;;5028616;28;20026;-59
2022/10/29 01:30:22;;;;;;;14.38;8.90;;;12.30;99.90;;;;;;5028782;28;20029;-59
2022/10/29 01:33:25;;;;;;;12.65;9.13;;;12.30;99.90;;;;;;5027784;28;20053;-59
2022/10/29 01:35:59;;;;;;;10.20;8.18;;;12.30;99.90;;;;;;5026283;28;20072;-59
2022/10/29 01:39:02;;;;;;;16.83;9.13;;;12.30;99.90;;;;;;5028697;28;20359;-59
2022/10/29 01:41:50;;;;;;;10.57;8.23;;;12.20;99.90;;;;;;5029232;28;20045;-59
2022/10/29 01:44:23;;;;;;;11.73;8.55;;;12.20;99.90;;;;;;5027985;28;20060;-58
2022/10/29 01:46:59;;;;;;;10.90;8.45;;;12.20;99.90;;;;;;5028591;28;20476;-59
2022/10/29 01:49:35;;;;;;;12.77;9.77;;;12.20;99.90;;;;;;5028870;28;20049;-59
2022/10/29 01:52:03;;;;;;;13.10;9.07;;;12.20;99.90;;;;;;5029414;28;20083;-60
2022/10/29 01:54:29;;;;;;;12.00;9.07;;;12.20;99.90;;;;;;5029731;28;20033;-59
2022/10/29 01:56:56;;;;;;;12.45;8.73;;;12.20;99.90;;;;;;5029497;28;20029;-60
2022/10/29 01:59:23;;;;;;;9.32;8.23;;;12.10;99.90;;;;;;5029141;28;20432;-59
2022/10/29 02:02:07;;;;;;;11.75;8.77;;;12.10;99.90;;;;;;5027399;28;20061;-58
2022/10/29 02:04:53;;;;;;;12.48;9.00;;;12.10;99.90;;;;;;5026330;28;20033;-59
2022/10/29 02:07:44;;;;;;;10.55;8.32;;;12.10;99.90;;;;;;5028188;28;20045;-60
2022/10/29 02:10:21;;;;;;;11.93;8.70;;;12.10;99.90;;;;;;5027818;28;20026;-59
2022/10/29 02:12:49;;;;;;;8.73;7.82;;;12.10;99.90;;;;;;5029402;28;20108;-59
2022/10/29 02:15:22;;;;;;;17.70;8.52;;;12.10;99.90;;;;;;5028501;28;20075;-58
2022/10/29 02:17:48;;;;;;;10.63;9.48;;;12.00;99.90;;;;;;5027946;28;20021;-59
2022/10/29 02:20:15;;;;;;;9.90;8.40;;;12.00;99.90;;;;;;5028998;28;20071;-59
2022/10/29 02:22:41;;;;;;;14.60;9.15;;;11.90;99.90;;;;;;5026826;28;20041;-59
2022/10/29 02:25:08;;;;;;;12.00;9.52;;;11.90;99.90;;;;;;5027921;28;20026;-59
2022/10/29 02:27:34;;;;;;;12.73;8.30;;;11.90;99.90;;;;;;5027625;28;20569;-59
2022/10/29 02:29:59;;;;;;;15.88;9.40;;;11.90;99.90;;;;;;5028286;28;20040;-57
2022/10/29 02:32:25;;;;;;;10.00;8.07;;;11.80;99.90;;;;;;5028477;28;20087;-58
2022/10/29 02:34:51;;;;;;;11.20;9.13;;;11.80;99.90;;;;;;5025495;28;20415;-59
2022/10/29 02:37:16;;;;;;;11.88;8.40;;;11.80;99.90;;;;;;5028543;28;20026;-60
2022/10/29 02:39:42;;;;;;;14.38;8.93;;;11.80;99.90;;;;;;5028303;28;20048;-59
2022/10/29 02:42:09;;;;;;;17.52;9.02;;;11.80;99.90;;;;;;5028921;28;20095;-59
2022/10/29 02:44:34;;;;;;;11.15;8.93;;;11.80;99.90;;;;;;5029022;28;20018;-60
2022/10/29 02:47:00;;;;;;;13.30;9.55;;;11.70;99.90;;;;;;5026642;28;20080;-59
2022/10/29 02:49:25;;;;;;;10.85;9.32;;;11.80;99.90;;;;;;5028005;28;20056;-59
2022/10/29 02:51:51;;;;;;;10.48;9.27;;;11.80;99.90;;;;;;5025714;28;20067;-60
2022/10/29 02:54:17;;;;;;;10.05;8.75;;;11.80;99.90;;;;;;5028103;28;20038;-60
2022/10/29 02:56:42;;;;;;;11.23;8.50;;;11.80;99.90;;;;;;5026618;28;20121;-60
2022/10/29 02:59:08;;;;;;;15.77;7.28;;;11.80;99.90;;;;;;5028790;28;20140;-60
2022/10/29 03:01:34;;;;;;;8.77;7.45;;;11.80;99.90;;;;;;5028533;28;20029;-60
2022/10/29 03:03:59;;;;;;;11.38;7.63;;;11.70;99.90;;;;;;5027407;28;20033;-59
2022/10/29 03:06:25;;;;;;;12.18;7.63;;;11.80;99.90;;;;;;5028292;28;20029;-59
2022/10/29 03:08:50;;;;;;;9.20;8.10;;;11.80;99.90;;;;;;5027693;28;20482;-59
2022/10/29 03:11:16;;;;;;;9.95;8.18;;;11.80;99.90;;;;;;5028369;28;20063;-58
2022/10/29 03:13:42;;;;;;;9.77;8.52;;;11.80;99.90;;;;;;5028287;28;20104;-58
2022/10/29 03:16:08;;;;;;;18.27;7.70;;;11.80;99.90;;;;;;5027193;28;20477;-59
2022/10/29 03:18:33;;;;;;;10.18;8.32;;;11.80;99.90;;;;;;5028106;28;20026;-59
2022/10/29 03:20:59;;;;;;;8.75;7.63;;;11.80;99.90;;;;;;5028062;28;20107;-60
2022/10/29 03:23:25;;;;;;;10.65;8.85;;;11.70;99.90;;;;;;5028678;28;20026;-59
2022/10/29 03:25:54;;;;;;;10.20;8.35;;;11.70;99.90;;;;;;5028170;28;20120;-59
2022/10/29 03:28:26;;;;;;;15.13;8.93;;;11.70;99.90;;;;;;5025615;28;20273;-61
2022/10/29 03:30:52;;;;;;;12.70;8.68;;;11.70;99.90;;;;;;5026422;28;20037;-61
2022/10/29 03:33:18;;;;;;;13.48;8.93;;;11.70;99.90;;;;;;5025909;28;20106;-61
2022/10/29 03:35:43;;;;;;;10.40;9.30;;;11.60;99.90;;;;;;5025961;28;20017;-60
2022/10/29 03:38:09;;;;;;;9.02;8.13;;;11.60;99.90;;;;;;5027808;28;20026;-60
2022/10/29 03:40:34;;;;;;;9.25;8.35;;;11.60;99.90;;;;;;5027512;28;20036;-61
2022/10/29 03:43:00;;;;;;;11.40;8.93;;;11.50;99.90;;;;;;5027632;28;20041;-61
2022/10/29 03:45:26;;;;;;;9.77;8.95;;;11.50;99.90;;;;;;5026683;28;20037;-60
2022/10/29 03:47:51;;;;;;;11.98;8.07;;;11.60;99.90;;;;;;5027662;28;20037;-60
2022/10/29 03:50:17;;;;;;;9.70;8.57;;;11.50;99.90;;;;;;5027527;28;20036;-60
2022/10/29 03:52:43;;;;;;;9.52;8.23;;;11.50;99.90;;;;;;5026706;28;20112;-61
2022/10/29 03:55:08;;;;;;;8.98;8.07;;;11.50;99.90;;;;;;5026160;28;20025;-60
2022/10/29 03:57:34;;;;;;;10.73;8.40;;;11.40;99.90;;;;;;5025485;28;20392;-59
2022/10/29 04:00:00;;;;;;;8.90;7.45;;;11.40;99.90;;;;;;5027206;28;20513;-58
2022/10/29 04:02:26;;;;;;;17.83;8.27;;;11.40;99.90;;;;;;5027202;28;21052;-58
2022/10/29 04:04:52;;;;;;;8.93;8.02;;;11.30;99.90;;;;;;5026114;28;20493;-59
2022/10/29 04:07:18;;;;;;;8.43;7.30;;;11.30;99.90;;;;;;5027810;28;20044;-58
2022/10/29 04:09:43;;;;;;;16.52;7.63;;;11.20;99.90;;;;;;5025653;28;20026;-59
2022/10/29 04:12:09;;;;;;;13.65;8.05;;;11.30;99.90;;;;;;5026386;28;20049;-60
2022/10/29 04:14:35;;;;;;;11.57;8.02;;;11.20;99.90;;;;;;5028013;28;20041;-60
2022/10/29 04:17:00;;;;;;;8.65;7.13;;;11.20;99.90;;;;;;5027063;28;20493;-60
2022/10/29 04:19:26;;;;;;;17.25;10.65;;;11.10;99.90;;;;;;5025624;28;20030;-60
2022/10/29 04:21:52;;;;;;;14.23;9.82;;;11.10;99.90;;;;;;5025624;28;20091;-60
2022/10/29 04:24:17;;;;;;;12.45;9.20;;;11.20;99.90;;;;;;5027695;28;20860;-60
2022/10/29 04:26:43;;;;;;;14.48;8.98;;;11.10;99.90;;;;;;5025972;28;20036;-58
2022/10/29 04:29:09;;;;;;;13.65;9.70;;;11.10;99.90;;;;;;5028639;28;20109;-60
2022/10/29 04:31:35;;;;;;;13.18;7.57;;;11.00;99.90;;;;;;5030884;28;20028;-59
2022/10/29 04:34:01;;;;;;;10.23;5.50;;;11.00;99.90;;;;;;5026416;28;20021;-60
2022/10/29 04:36:27;;;;;;;14.65;5.85;;;10.80;99.90;;;;;;5029672;28;20963;-59
2022/10/29 04:38:53;;;;;;;6.60;5.53;;;10.70;99.90;;;;;;5030286;28;20021;-59
2022/10/29 04:41:18;;;;;;;8.63;5.63;;;10.50;99.90;;;;;;5029173;28;20421;-58
2022/10/29 04:43:44;;;;;;;9.40;7.65;;;10.40;99.90;;;;;;5029227;28;20107;-58
2022/10/29 04:46:10;;;;;;;14.90;9.07;;;10.40;99.90;;;;;;5027403;28;20029;-59
2022/10/29 04:48:36;;;;;;;10.20;8.63;;;10.40;99.90;;;;;;5029656;28;20528;-59
2022/10/29 04:51:01;;;;;;;15.02;9.63;;;10.40;99.90;;;;;;5029951;28;20101;-59
2022/10/29 04:53:27;;;;;;;9.80;8.05;;;10.40;99.90;;;;;;5030745;28;20064;-60
2022/10/29 04:55:59;;;;;;;20.33;9.55;;;10.40;99.90;;;;;;5028863;28;20461;-59
2022/10/29 04:58:25;;;;;;;12.98;10.00;;;10.40;99.90;;;;;;5030322;28;20044;-60
2022/10/29 05:00:50;;;;;;;10.80;9.73;;;10.40;99.90;;;;;;5028740;28;20033;-60
2022/10/29 05:03:16;;;;;;;14.32;9.80;;;10.40;99.90;;;;;;5029723;28;20030;-60
2022/10/29 05:05:42;;;;;;;13.13;10.18;;;10.40;99.90;;;;;;5030449;28;20068;-60
2022/10/29 05:08:10;;;;;;;13.45;10.25;;;10.40;99.90;;;;;;5028556;28;20038;-59
2022/10/29 05:10:37;;;;;;;14.07;10.65;;;10.40;99.90;;;;;;5030968;28;20030;-59
2022/10/29 05:13:10;;;;;;;14.27;10.32;;;10.40;99.90;;;;;;5029825;28;20060;-59
2022/10/29 05:15:37;;;;;;;20.35;10.10;;;10.30;99.90;;;;;;5028221;28;20106;-59
2022/10/29 05:18:03;;;;;;;14.07;9.68;;;10.30;99.90;;;;;;5027464;28;20037;-60
2022/10/29 05:20:29;;;;;;;18.02;9.95;;;10.30;99.90;;;;;;5029996;28;20021;-59
2022/10/29 05:23:02;;;;;;;9.70;8.82;;;10.30;99.90;;;;;;5030517;28;20037;-59
2022/10/29 05:25:29;;;;;;;13.30;9.73;;;10.30;99.90;;;;;;5029596;28;20060;-58
2022/10/29 05:28:08;;;;;;;12.55;9.48;;;10.40;99.90;;;;;;5029559;28;20040;-58
2022/10/29 05:30:34;;;;;;;11.18;9.77;;;10.40;99.90;;;;;;5028246;28;20102;-59
2022/10/29 05:33:00;;;;;;;15.40;8.93;;;10.40;99.90;;;;;;5029510;28;20469;-59
2022/10/29 05:35:26;;;;;;;11.82;8.85;;;10.40;99.90;;;;;;5030067;28;20469;-58
2022/10/29 05:37:55;;;;;;;11.05;9.07;;;10.40;99.90;;;;;;5028891;28;20020;-59
2022/10/29 05:40:22;;;;;;;14.07;9.65;;;10.40;99.90;;;;;;5028393;28;20044;-59
2022/10/29 05:42:48;;;;;;;13.60;9.38;;;10.40;99.90;;;;;;5029347;28;20014;-59
2022/10/29 05:45:14;;;;;;;13.75;10.68;;;10.40;99.90;;;;;;5030089;28;20018;-59
2022/10/29 05:47:39;;;;;;;13.90;9.05;;;10.40;99.90;;;;;;5025187;28;20033;-59
2022/10/29 05:50:05;;;;;;;17.27;10.88;;;10.30;99.90;;;;;;5029333;28;20017;-62
2022/10/29 05:52:31;;;;;;;17.55;11.10;;;10.30;99.90;;;;;;5028644;28;20045;-59
2022/10/29 05:54:57;;;;;;;11.38;10.35;;;10.30;99.90;;;;;;5027644;28;20033;-59
2022/10/29 05:57:22;;;;;;;20.77;11.50;;;10.30;99.90;;;;;;5024053;28;20411;-59
2022/10/29 05:59:48;;;;;;;12.38;11.18;;;10.30;99.90;;;;;;5027963;28;20025;-59
2022/10/29 06:02:13;;;;;;;14.10;12.82;;;10.30;99.90;;;;;;5026748;28;20085;-59
2022/10/29 06:04:39;;;;;;;19.42;12.57;;;10.30;99.90;;;;;;5025996;28;20060;-60
2022/10/29 06:07:05;;;;;;;18.00;12.88;;;10.40;99.90;;;;;;5028413;28;20490;-60
2022/10/29 06:09:30;;;;;;;12.95;11.75;;;10.40;99.90;;;;;;5028183;28;20026;-59
2022/10/29 06:11:56;;;;;;;12.90;11.15;;;10.40;99.90;;;;;;5027343;28;20033;-59
2022/10/29 06:14:22;;;;;;;15.98;11.13;;;10.40;99.90;;;;;;5029240;28;20018;-59
2022/10/29 06:16:47;;;;;;;14.38;11.25;;;10.40;99.90;;;;;;5028050;28;20095;-59
2022/10/29 06:19:13;;;;;;;14.73;11.38;;;10.40;99.90;;;;;;5027756;28;20022;-60
2022/10/29 06:21:39;;;;;;;11.48;10.35;;;10.40;99.90;;;;;;5026862;28;20034;-60
2022/10/29 06:24:05;;;;;;;14.93;11.45;;;10.40;99.90;;;;;;5025944;28;20537;-59
2022/10/29 06:26:31;;;;;;;10.52;9.70;;;10.50;99.90;;;;;;5028599;28;20037;-59
2022/10/29 06:28:56;;;;;;;14.27;9.38;;;10.50;99.90;;;;;;5028519;28;20504;-59
2022/10/29 06:31:22;;;;;;;19.10;11.00;;;10.60;99.90;;;;;;5024079;28;20396;-60
2022/10/29 06:33:47;;;;;;;15.52;10.60;;;10.60;99.90;;;;;;5028088;28;20052;-59
2022/10/29 06:36:13;;;;;;;14.25;9.55;;;10.70;99.90;;;;;;5027588;28;20512;-58
2022/10/29 06:38:39;;;;;;;13.85;8.57;;;10.70;99.90;;;;;;5028008;28;20079;-60
2022/10/29 06:41:04;;;;;;;11.85;9.55;;;10.70;99.90;;;;;;5025839;28;20478;-58
2022/10/29 06:43:30;;;;;;;14.20;8.40;;;10.80;99.90;;;;;;5026580;28;20025;-59
2022/10/29 06:45:55;;;;;;;10.77;7.80;;;10.90;99.90;;;;;;5027897;28;20622;-59
2022/10/29 06:48:21;;;;;;;15.50;7.38;;;10.90;99.90;;;;;;5027627;28;20060;-59
2022/10/29 06:50:47;;;;;;;17.15;8.82;;;11.00;99.90;;;;;;5026637;28;20040;-59
2022/10/29 06:53:14;;;;;;;9.95;8.70;;;11.00;99.90;;;;;;5026222;28;20052;-59
2022/10/29 06:55:39;;;;;;;12.00;8.27;;;11.00;99.90;;;;;;5010507;28;20405;-60
2022/10/29 06:58:09;;;;;;;16.45;8.77;;;11.00;99.90;;;;;;5026459;28;20026;-60
2022/10/29 07:00:35;;;;;;;15.60;7.90;;;11.00;99.90;;;;;;5027297;28;20179;-60
2022/10/29 07:03:02;;;;;;;13.98;8.05;;;11.00;99.90;;;;;;5027707;28;20553;-60
2022/10/29 07:05:28;;;;;;;13.73;9.05;;;11.00;99.90;;;;;;5026441;28;20021;-59
2022/10/29 07:07:56;;;;;;;11.40;8.27;;;11.00;99.90;;;;;;5027583;28;20041;-59
2022/10/29 07:10:22;;;;;;;12.45;8.52;;;11.10;99.90;;;;;;5027556;28;20400;-60
2022/10/29 07:12:47;;;;;;;14.05;9.25;;;11.10;99.90;;;;;;5027902;28;20025;-60
2022/10/29 07:15:13;;;;;;;11.30;9.68;;;11.20;99.90;;;;;;5027169;28;20029;-59
2022/10/29 07:17:39;;;;;;;10.95;9.55;;;11.20;99.90;;;;;;5027373;28;20033;-60
2022/10/29 07:20:06;;;;;;;12.05;9.75;;;11.30;99.90;;;;;;5027068;28;20025;-60
2022/10/29 07:22:32;;;;;;;16.77;8.95;;;11.40;99.90;;;;;;5027457;28;20102;-59
2022/10/29 07:24:58;;;;;;;11.82;9.75;;;11.50;99.90;;;;;;5026623;28;20033;-59
2022/10/29 07:27:23;;;;;;;11.27;8.57;;;11.70;99.90;;;;;;5025755;28;20036;-60
2022/10/29 07:29:49;;;;;;;12.35;9.00;;;11.90;99.90;;;;;;5027700;28;20045;-59
2022/10/29 07:32:15;;;;;;;9.70;8.77;;;12.00;99.90;;;;;;5028213;28;20377;-60
2022/10/29 07:34:40;;;;;;;13.85;8.10;;;12.20;99.90;;;;;;5029817;28;20033;-60
2022/10/29 07:37:06;;;;;;;8.65;7.75;;;12.40;99.90;;;;;;5026180;28;20033;-62
2022/10/29 07:39:31;;;;;;;11.73;7.78;;;12.50;99.90;;;;;;5027639;28;20045;-58
2022/10/29 07:41:57;;;;;;;12.50;7.90;;;12.60;99.90;;;;;;5024988;28;20068;-59
2022/10/29 07:44:23;;;;;;;11.82;7.72;;;12.60;99.90;;;;;;5027237;28;20083;-60
2022/10/29 07:46:48;;;;;;;11.43;7.03;;;12.70;99.90;;;;;;5025606;28;20033;-60
2022/10/29 07:49:14;;;;;;;9.38;7.50;;;12.80;99.90;;;;;;5025751;28;20075;-60
2022/10/29 07:51:40;;;;;;;11.40;8.75;;;12.90;99.90;;;;;;5026439;28;20235;-61
2022/10/29 07:54:06;;;;;;;8.00;6.88;;;13.00;99.90;;;;;;5027495;28;20037;-62
2022/10/29 07:56:31;;;;;;;11.27;7.50;;;13.20;99.90;;;;;;5026870;28;20126;-61
2022/10/29 07:58:57;;;;;;;11.10;7.93;;;13.30;99.90;;;;;;5025880;28;20595;-60
2022/10/29 08:01:22;;;;;;;9.68;6.97;;;13.50;99.90;;;;;;5025478;28;20029;-61
2022/10/29 08:03:51;;;;;;;8.65;6.70;;;13.60;99.90;;;;;;5028758;28;20484;-61
2022/10/29 08:06:17;;;;;;;8.43;7.15;;;13.80;99.90;;;;;;5028833;28;20589;-61
2022/10/29 08:08:42;;;;;;;9.10;7.35;;;13.90;99.90;;;;;;5031643;28;20117;-61
2022/10/29 08:11:08;;;;;;;8.13;7.32;;;13.90;99.90;;;;;;5031486;28;20033;-60
2022/10/29 08:13:34;;;;;;;11.00;7.05;;;13.90;99.90;;;;;;5028977;28;20108;-60
2022/10/29 08:15:59;;;;;;;8.57;7.72;;;13.80;99.90;;;;;;5030127;28;20501;-59
2022/10/29 08:18:25;;;;;;;10.65;7.43;;;13.90;99.90;;;;;;5031262;28;20033;-60
2022/10/29 08:20:51;;;;;;;8.52;7.68;;;14.00;99.90;;;;;;5030881;28;20108;-61
2022/10/29 08:23:16;;;;;;;8.48;7.63;;;14.20;99.90;;;;;;5030460;28;20034;-63
2022/10/29 08:25:43;;;;;;;9.18;8.27;;;14.30;99.90;;;;;;5030702;28;20025;-59
2022/10/29 08:28:11;;;;;;;8.95;8.00;;;14.50;99.90;;;;;;5030486;28;20033;-60
2022/10/29 08:30:37;;;;;;;11.57;8.68;;;14.70;99.90;;;;;;5031162;28;20032;-59
2022/10/29 08:33:04;;;;;;;9.48;8.10;;;14.80;99.90;;;;;;5028811;28;20432;-61
2022/10/29 08:35:30;;;;;;;11.63;8.18;;;14.80;99.90;;;;;;5032292;28;21195;-60
2022/10/29 08:37:56;;;;;;;16.38;8.73;;;14.90;99.90;;;;;;5031314;28;20371;-60
2022/10/29 08:40:27;;;;;;;8.18;7.05;;;15.00;99.90;;;;;;5031329;28;20058;-61
2022/10/29 08:43:32;;;;;;;9.20;8.30;;;15.00;99.90;;;;;;5028287;28;20565;-60
2022/10/29 08:45:58;;;;;;;10.32;7.90;;;15.10;99.90;;;;;;5030358;28;20792;-59
2022/10/29 08:48:45;;;;;;;8.70;7.90;;;15.20;99.90;;;;;;5030178;28;20039;-60
2022/10/29 08:51:21;;;;;;;12.15;8.93;;;15.20;99.90;;;;;;5030098;28;20116;-60
2022/10/29 08:53:49;;;;;;;12.18;8.15;;;15.20;99.90;;;;;;5029447;28;20367;-60
2022/10/29 08:56:24;;;;;;;12.15;9.05;;;15.10;99.90;;;;;;5031156;28;20025;-60
2022/10/29 08:59:13;;;;;;;10.50;8.82;;;15.10;99.90;;;;;;5028901;28;20033;-60
2022/10/29 09:01:39;;;;;;;11.02;9.07;;;15.10;99.90;;;;;;5029730;28;20056;-61
2022/10/29 09:04:27;;;;;;;10.18;8.23;;;15.20;99.90;;;;;;5030585;28;20099;-61
2022/10/29 09:07:18;;;;;;;10.45;9.25;;;15.20;99.90;;;;;;5028899;28;20099;-60
2022/10/29 09:10:15;;;;;;;13.48;8.90;;;15.30;99.90;;;;;;5025948;28;20029;-60
2022/10/29 09:13:03;;;;;;;12.18;8.73;;;15.50;99.90;;;;;;5030092;28;20091;-62
2022/10/29 09:15:47;;;;;;;12.32;9.30;;;15.60;99.90;;;;;;5027317;28;20026;-61
2022/10/29 09:18:19;;;;;;;10.95;8.30;;;15.70;99.90;;;;;;5027843;28;20493;-59
2022/10/29 09:21:06;;;;;;;8.73;7.10;;;15.90;99.90;;;;;;5029450;28;20032;-61
2022/10/29 09:23:51;;;;;;;10.38;7.57;;;16.10;99.90;;;;;;5028503;28;20033;-60
2022/10/29 09:26:35;;;;;;;8.20;7.45;;;16.70;99.90;;;;;;5029406;28;20037;-61
2022/10/29 09:29:25;;;;;;;8.52;7.53;;;17.10;99.90;;;;;;5029972;28;20064;-61
2022/10/29 09:31:59;;;;;;;8.27;6.83;;;17.50;99.90;;;;;;5029158;28;20022;-60
2022/10/29 09:34:40;;;;;;;10.00;6.85;;;17.90;99.90;;;;;;5029311;28;20025;-60
2022/10/29 09:37:20;;;;;;;10.80;6.43;;;18.40;99.90;;;;;;5029562;28;20041;-61
2022/10/29 09:39:46;;;;;;;6.97;6.20;;;18.80;99.90;;;;;;5027677;28;20060;-61
2022/10/29 09:42:32;;;;;;;9.35;6.50;;;19.00;99.90;;;;;;5028377;28;20021;-62
2022/10/29 09:45:01;;;;;;;7.22;4.85;;;19.10;99.90;;;;;;5028819;28;20087;-61
2022/10/29 09:47:48;;;;;;;6.45;5.38;;;19.10;99.90;;;;;;5027527;28;20040;-60
2022/10/29 09:50:28;;;;;;;10.50;6.25;;;19.10;99.90;;;;;;5028391;28;20072;-61
2022/10/29 09:52:54;;;;;;;8.43;6.37;;;19.00;99.90;;;;;;5029391;28;20029;-62
2022/10/29 09:55:26;;;;;;;9.52;6.53;;;18.70;99.90;;;;;;5028291;28;20282;-60
2022/10/29 09:57:55;;;;;;;8.23;6.47;;;18.40;99.90;;;;;;5028308;28;20481;-62
2022/10/29 10:00:29;;;;;;;12.70;6.22;;;18.20;99.90;;;;;;5029344;28;20436;-60
2022/10/29 10:03:28;;;;;;;8.35;6.63;;;18.00;99.90;;;;;;5029465;28;20159;-60
2022/10/29 10:06:06;;;;;;;10.90;6.88;;;17.90;99.90;;;;;;5028779;28;20056;-62
2022/10/29 10:08:33;;;;;;;8.85;7.10;;;17.80;99.90;;;;;;5029963;28;20053;-61
2022/10/29 10:11:06;;;;;;;7.90;7.10;;;17.90;99.90;;;;;;5026809;28;20029;-60
2022/10/29 10:13:35;;;;;;;13.55;7.50;;;18.10;99.90;;;;;;5029381;28;20506;-60
2022/10/29 10:16:03;;;;;;;9.93;6.47;;;18.30;99.90;;;;;;5029503;28;20116;-60
2022/10/29 10:18:31;;;;;;;9.90;6.72;;;18.70;99.90;;;;;;5028778;28;20033;-60
2022/10/29 10:21:30;;;;;;;7.10;6.43;;;18.80;99.90;;;;;;5028967;28;20520;-61
2022/10/29 10:23:57;;;;;;;10.63;6.57;;;19.00;99.90;;;;;;5028822;28;20660;-60
2022/10/29 10:26:44;;;;;;;8.93;6.18;;;19.30;99.90;;;;;;5028361;28;20140;-61
2022/10/29 10:29:11;;;;;;;9.65;6.88;;;19.70;99.90;;;;;;5028692;28;20038;-61
2022/10/29 10:31:37;;;;;;;7.70;5.60;;;20.10;99.90;;;;;;5027459;28;20022;-62
2022/10/29 10:34:18;;;;;;;9.13;6.30;;;20.50;99.90;;;;;;5026585;28;20025;-61
2022/10/29 10:36:53;;;;;;;10.80;5.93;;;20.60;99.90;;;;;;5027759;28;20044;-61
2022/10/29 10:39:29;;;;;;;10.57;5.35;;;20.70;99.90;;;;;;5028003;28;20053;-61
2022/10/29 10:41:58;;;;;;;6.10;5.45;;;20.80;99.90;;;;;;5028814;28;20025;-62
2022/10/29 10:44:25;;;;;;;8.77;5.57;;;20.90;99.90;;;;;;5029072;28;20394;-61
2022/10/29 10:46:54;;;;;;;11.57;5.55;;;20.80;99.90;;;;;;5026013;28;20030;-61
2022/10/29 10:49:49;;;;;;;10.25;6.30;;;20.70;99.90;;;;;;5028167;28;20029;-61
2022/10/29 10:52:29;;;;;;;6.65;5.60;;;20.70;99.90;;;;;;5014625;28;20018;-60
2022/10/29 10:55:21;;;;;;;7.85;5.43;;;20.80;99.90;;;;;;5025456;28;20815;-61
2022/10/29 10:58:33;;;;;;;9.95;6.15;;;20.80;99.90;;;;;;5026458;28;20017;-61
2022/10/29 11:01:13;;;;;;;9.43;5.82;;;20.80;99.90;;;;;;5025293;28;20060;-61
2022/10/29 11:03:44;;;;;;;7.40;5.78;;;20.60;99.90;;;;;;5026866;28;20378;-62
2022/10/29 11:06:19;;;;;;;9.68;5.60;;;20.50;99.90;;;;;;5026915;28;20441;-60
2022/10/29 11:08:53;;;;;;;11.68;6.38;;;20.60;99.90;;;;;;5025782;28;20389;-61
2022/10/29 11:11:31;;;;;;;13.52;6.35;;;20.40;99.90;;;;;;5028323;28;20028;-59
2022/10/29 11:14:05;;;;;;;11.68;6.43;;;20.40;99.90;;;;;;5026143;28;20092;-61
2022/10/29 11:16:46;;;;;;;9.30;6.05;;;20.60;99.90;;;;;;5025516;28;20048;-62
2022/10/29 11:19:21;;;;;;;8.30;6.00;;;20.70;99.90;;;;;;5025275;28;20117;-61
2022/10/29 11:22:10;;;;;;;10.95;5.70;;;21.00;99.90;;;;;;5027664;28;20036;-60
2022/10/29 11:25:08;;;;;;;14.57;5.60;;;21.20;99.90;;;;;;5024224;28;20032;-61
2022/10/29 11:27:58;;;;;;;9.95;6.35;;;21.20;99.90;;;;;;5005131;28;20116;-61
2022/10/29 11:30:26;;;;;;;15.77;5.82;;;21.00;99.90;;;;;;5027487;28;20056;-61
2022/10/29 11:33:21;;;;;;;8.85;6.82;;;20.70;99.90;;;;;;5028639;28;20093;-61
2022/10/29 11:35:53;;;;;;;9.45;6.32;;;20.40;99.90;;;;;;5025924;28;20033;-61
2022/10/29 11:38:41;;;;;;;7.88;6.28;;;20.20;99.90;;;;;;5025285;28;20033;-61
2022/10/29 11:41:22;;;;;;;9.57;5.63;;;20.00;99.90;;;;;;5026746;28;20072;-61
2022/10/29 11:43:47;;;;;;;9.80;6.28;;;19.70;99.90;;;;;;5026683;28;20115;-61
2022/10/29 11:46:32;;;;;;;13.13;7.20;;;19.50;99.90;;;;;;5027349;28;20490;-60
2022/10/29 11:49:43;;;;;;;14.35;6.25;;;19.40;99.90;;;;;;5026665;28;20103;-60
2022/10/29 11:52:15;;;;;;;6.93;6.20;;;19.40;99.90;;;;;;4987082;28;20038;-60
2022/10/29 11:55:09;;;;;;;11.10;6.22;;;19.50;99.90;;;;;;5021274;28;20048;-61
2022/10/29 11:57:58;;;;;;;11.88;6.65;;;19.60;99.90;;;;;;5025438;28;20037;-61
2022/10/29 12:00:24;;;;;;;12.52;7.10;;;19.70;99.90;;;;;;5020541;28;20041;-61
2022/10/29 12:03:09;;;;;;;7.70;5.75;;;19.90;99.90;;;;;;5026556;28;20025;-60
2022/10/29 12:05:43;;;;;;;9.63;6.15;;;20.30;99.90;;;;;;5026844;28;20047;-61
2022/10/29 12:08:24;;;;;;;14.13;5.85;;;20.60;99.90;;;;;;5026439;28;20557;-61
2022/10/29 12:10:52;;;;;;;11.20;6.78;;;20.90;99.90;;;;;;5024000;28;20105;-61
2022/10/29 12:13:23;;;;;;;10.52;6.35;;;21.20;99.90;;;;;;5027024;28;20022;-61
2022/10/29 12:16:07;;;;;;;10.93;6.40;;;21.30;99.90;;;;;;5025020;28;20024;-61
2022/10/29 12:19:00;;;;;;;8.20;5.75;;;21.50;99.90;;;;;;5023907;28;20021;-60
2022/10/29 12:21:30;;;;;;;14.52;6.65;;;21.50;99.90;;;;;;5025340;28;20603;-60
2022/10/29 12:23:56;;;;;;;13.40;5.97;;;21.50;99.90;;;;;;5027129;28;20021;-61
2022/10/29 12:26:31;;;;;;;9.15;5.75;;;21.30;99.90;;;;;;5027125;28;20501;-61
2022/10/29 12:29:20;;;;;;;14.27;5.78;;;21.30;99.90;;;;;;5026580;28;20080;-59
2022/10/29 12:31:59;;;;;;;8.70;6.13;;;21.20;99.90;;;;;;5024074;28;20022;-62
2022/10/29 12:34:47;;;;;;;8.00;5.75;;;21.10;99.90;;;;;;5024843;28;20034;-60
2022/10/29 12:37:18;;;;;;;9.10;6.60;;;21.00;99.90;;;;;;5020978;28;20037;-61
2022/10/29 12:39:47;;;;;;;11.35;5.95;;;20.90;99.90;;;;;;5025382;28;20075;-61
2022/10/29 12:42:32;;;;;;;11.75;5.82;;;20.90;99.90;;;;;;5027172;28;20084;-62
2022/10/29 12:45:05;;;;;;;10.18;5.30;;;21.00;99.90;;;;;;5026926;28;20041;-60
2022/10/29 12:47:45;;;;;;;7.40;6.47;;;21.10;99.90;;;;;;5026085;28;20112;-60
2022/10/29 12:50:31;;;;;;;9.50;6.45;;;21.00;99.90;;;;;;5026824;28;20042;-60
2022/10/29 12:53:00;;;;;;;11.57;6.00;;;20.90;99.90;;;;;;5028411;28;20750;-60
2022/10/29 12:55:26;;;;;;;8.77;6.68;;;20.80;99.90;;;;;;5028551;28;20124;-61
2022/10/29 12:57:52;;;;;;;9.05;6.38;;;20.70;99.90;;;;;;5029972;28;20033;-61
2022/10/29 13:00:30;;;;;;;8.32;6.30;;;20.60;99.90;;;;;;5030312;28;20085;-60
2022/10/29 13:02:56;;;;;;;12.02;6.88;;;20.50;99.90;;;;;;5029902;28;20025;-61